Time;durP1;ratioP1;P1;durP2;ratioP2;P2;SDS_P1;SDS_P2;PMS_P1;PMS_P2;Temp;Humidity;BMP_temperature;BMP_pressure;BME280_temperature;BME280_humidity;BME280_pressure;Samples;Min_cycle;Max_cycle;Signal;HPM_P1;HPM_P2
2022/08/26 00:01:42;;;;;;;7.07;4.30;;;;;;;23.32;50.95;100049.00;5104218;27;19923;-67
2022/08/26 00:04:10;;;;;;;11.85;4.55;;;;;;;23.30;50.96;100042.06;5102137;27;20487;-68
2022/08/26 00:06:37;;;;;;;6.07;4.38;;;;;;;23.27;51.08;100040.56;5102495;27;20131;-67
2022/08/26 00:09:08;;;;;;;5.60;5.00;;;;;;;23.25;51.17;100039.88;5103850;28;20457;-68
2022/08/26 00:11:35;;;;;;;7.13;4.90;;;;;;;23.27;51.22;100051.38;5096481;28;20562;-68
2022/08/26 00:14:02;;;;;;;6.25;4.70;;;;;;;23.25;51.22;100049.84;5086400;28;20040;-67
2022/08/26 00:16:30;;;;;;;7.15;4.70;;;;;;;23.24;51.57;100046.28;5101657;28;20046;-68
2022/08/26 00:18:57;;;;;;;4.72;4.30;;;;;;;23.20;51.05;100044.91;5097564;28;20142;-68
2022/08/26 00:21:24;;;;;;;7.03;4.50;;;;;;;23.22;50.91;100042.91;5105021;27;20070;-68
2022/08/26 00:23:50;;;;;;;9.10;4.78;;;;;;;23.21;51.21;100049.31;5105715;28;20457;-68
2022/08/26 00:26:17;;;;;;;6.10;4.28;;;;;;;23.17;51.03;100045.22;5105228;28;20055;-68
2022/08/26 00:28:46;;;;;;;6.07;4.40;;;;;;;23.03;51.42;100037.72;5103765;28;20055;-68
2022/08/26 00:31:13;;;;;;;6.97;4.45;;;;;;;23.04;51.43;100050.22;5105054;27;20039;-70
2022/08/26 00:33:40;;;;;;;6.85;4.80;;;;;;;23.01;51.73;100051.38;5094616;28;20036;-68
2022/08/26 00:36:08;;;;;;;6.72;4.70;;;;;;;22.97;51.92;100055.44;5102451;28;20142;-67
2022/08/26 00:38:45;;;;;;;6.18;4.60;;;;;;;22.91;52.04;100047.13;5104245;28;20086;-68
2022/08/26 00:41:12;;;;;;;6.00;4.55;;;;;;;22.88;52.49;100044.72;5102921;28;20047;-68
2022/08/26 00:43:38;;;;;;;10.73;4.70;;;;;;;22.85;52.40;100045.03;5103906;27;20048;-68
2022/08/26 00:46:17;;;;;;;11.10;4.88;;;;;;;22.87;52.59;100043.03;5102765;28;20047;-67
2022/08/26 00:48:48;;;;;;;5.88;4.45;;;;;;;22.79;52.22;100045.69;5098428;28;20146;-68
2022/08/26 00:51:22;;;;;;;8.27;4.60;;;;;;;22.72;52.78;100037.34;5108080;28;20050;-68
2022/08/26 00:53:56;;;;;;;10.15;5.10;;;;;;;22.68;52.65;100044.06;5103047;28;20542;-67
2022/08/26 00:56:40;;;;;;;8.18;4.80;;;;;;;22.62;53.00;100042.84;5101778;28;20067;-68
2022/08/26 00:59:10;;;;;;;8.57;4.95;;;;;;;22.51;53.16;100031.47;5095331;28;20382;-68
2022/08/26 01:01:40;;;;;;;7.90;4.50;;;;;;;22.52;53.33;100055.56;5099213;28;20555;-67
2022/08/26 01:04:08;;;;;;;6.82;4.38;;;;;;;22.48;53.38;100051.50;5104942;28;20051;-69
2022/08/26 01:06:35;;;;;;;9.40;4.68;;;;;;;22.35;53.44;100033.00;5095748;28;20044;-68
2022/08/26 01:09:02;;;;;;;6.60;4.85;;;;;;;22.44;53.81;100044.72;5097566;28;20134;-67
2022/08/26 01:11:30;;;;;;;7.85;5.72;;;;;;;22.39;54.11;100044.34;5097349;28;20097;-67
2022/08/26 01:14:01;;;;;;;6.28;4.75;;;;;;;22.31;54.17;100042.44;5099163;28;20494;-67
2022/08/26 01:16:28;;;;;;;6.68;5.13;;;;;;;22.30;54.43;100034.50;5100335;28;20044;-67
2022/08/26 01:19:01;;;;;;;6.72;4.78;;;;;;;22.20;54.62;100026.47;5096519;28;20079;-67
2022/08/26 01:21:46;;;;;;;5.90;4.72;;;;;;;22.27;54.59;100040.19;5105135;28;20432;-67
2022/08/26 01:24:13;;;;;;;8.90;5.10;;;;;;;22.18;54.74;100020.41;5101561;28;20067;-67
2022/08/26 01:26:42;;;;;;;5.25;4.70;;;;;;;22.29;54.69;100040.91;5102851;28;20040;-67
2022/08/26 01:29:14;;;;;;;7.05;5.28;;;;;;;22.27;54.72;100045.59;5104431;28;20054;-67
2022/08/26 01:31:54;;;;;;;6.65;5.30;;;;;;;22.19;54.82;100040.13;5099383;28;20103;-67
2022/08/26 01:34:29;;;;;;;6.85;4.93;;;;;;;22.04;55.17;100027.16;5099916;28;20126;-67
2022/08/26 01:37:03;;;;;;;5.65;4.80;;;;;;;22.18;54.95;100043.84;5103171;28;20136;-67
2022/08/26 01:39:33;;;;;;;8.50;4.80;;;;;;;22.17;55.00;100039.44;5102357;28;20085;-68
2022/08/26 01:42:02;;;;;;;9.73;4.80;;;;;;;22.25;54.87;100053.84;5097306;28;20376;-67
2022/08/26 01:44:35;;;;;;;9.88;5.20;;;;;;;22.26;54.83;100060.09;5105374;28;20044;-67
2022/08/26 01:47:03;;;;;;;5.95;4.80;;;;;;;22.19;55.18;100057.19;5101179;28;20049;-67
2022/08/26 01:49:34;;;;;;;8.80;5.38;;;;;;;22.24;54.98;100059.38;5095480;27;20135;-67
2022/08/26 01:52:03;;;;;;;8.23;5.32;;;;;;;22.21;55.22;100059.69;5110424;27;20461;-68
2022/08/26 01:54:31;;;;;;;6.43;5.15;;;;;;;22.24;55.23;100062.09;5104725;27;20126;-68
2022/08/26 01:56:58;;;;;;;5.72;4.90;;;;;;;22.22;55.47;100059.53;5107813;28;20094;-68
2022/08/26 01:59:25;;;;;;;6.45;5.00;;;;;;;22.19;55.51;100061.72;5103019;28;20109;-68
2022/08/26 02:01:52;;;;;;;7.57;5.28;;;;;;;22.14;55.56;100058.63;5105550;27;20105;-68
2022/08/26 02:04:44;;;;;;;6.35;5.50;;;;;;;22.13;55.75;100052.38;5104364;28;20048;-68
2022/08/26 02:07:11;;;;;;;6.63;5.55;;;;;;;22.08;56.21;100059.22;5109847;27;20043;-68
2022/08/26 02:09:39;;;;;;;6.70;5.47;;;;;;;22.03;56.45;100052.47;5100767;27;20050;-67
2022/08/26 02:12:09;;;;;;;5.82;5.13;;;;;;;21.87;56.53;100032.56;5109031;27;20050;-69
2022/08/26 02:14:40;;;;;;;7.70;5.30;;;;;;;22.01;56.57;100045.53;5104788;28;20063;-68
2022/08/26 02:17:10;;;;;;;8.50;5.60;;;;;;;21.90;56.80;100038.47;5104807;28;20075;-68
2022/08/26 02:19:40;;;;;;;10.07;5.28;;;;;;;21.96;56.93;100048.66;5105100;28;20269;-67
2022/08/26 02:22:12;;;;;;;;;;;;;;;21.96;56.92;100045.94;5105231;28;20059;-68
2022/08/26 02:24:53;;;;;;;6.95;5.20;;;;;;;21.95;57.24;100054.19;5104570;27;20118;-68
2022/08/26 02:27:23;;;;;;;7.63;5.53;;;;;;;21.92;57.00;100058.03;5103948;27;20097;-68
2022/08/26 02:29:57;;;;;;;6.45;5.18;;;;;;;21.88;57.18;100051.25;5104172;28;21212;-67
2022/08/26 02:32:24;;;;;;;8.35;5.10;;;;;;;21.88;57.25;100051.25;5104182;27;20101;-67
2022/08/26 02:34:52;;;;;;;7.10;5.50;;;;;;;21.86;57.35;100055.13;5103527;28;20467;-67
2022/08/26 02:37:19;;;;;;;7.63;5.75;;;;;;;21.81;57.41;100060.09;5106529;28;20074;-67
2022/08/26 02:39:48;;;;;;;7.00;5.57;;;;;;;21.77;57.58;100054.16;5090965;28;20562;-68
2022/08/26 02:42:15;;;;;;;10.65;5.95;;;;;;;21.58;57.59;100028.19;5103162;27;20052;-68
2022/08/26 02:44:41;;;;;;;7.35;5.28;;;;;;;21.72;57.83;100053.78;5102134;27;20063;-68
2022/08/26 02:47:13;;;;;;;7.30;6.13;;;;;;;21.66;57.91;100052.53;5098459;28;20077;-68
2022/08/26 02:49:42;;;;;;;7.18;5.90;;;;;;;21.61;58.09;100053.97;5107042;28;20141;-67
2022/08/26 02:52:12;;;;;;;8.00;5.63;;;;;;;21.61;58.53;100059.38;5103598;27;20047;-67
2022/08/26 02:54:39;;;;;;;7.15;5.88;;;;;;;21.57;58.68;100058.81;5087369;28;20542;-67
2022/08/26 02:57:06;;;;;;;9.75;5.55;;;;;;;21.56;58.90;100064.38;5103634;27;20479;-67
2022/08/26 02:59:34;;;;;;;9.18;5.80;;;;;;;21.42;58.49;100040.63;5104780;28;20039;-67
2022/08/26 03:02:01;;;;;;;7.13;5.65;;;;;;;21.49;58.93;100058.72;5109256;27;20124;-68
2022/08/26 03:04:29;;;;;;;9.82;6.45;;;;;;;21.48;58.84;100056.19;5106020;28;20071;-68
2022/08/26 03:06:58;;;;;;;;;;;;;;;21.46;59.00;100055.47;5105210;28;20368;-67
2022/08/26 03:09:26;;;;;;;7.68;5.95;;;;;;;21.37;59.25;100041.09;5104081;27;19923;-68
2022/08/26 03:11:54;;;;;;;8.43;5.93;;;;;;;21.35;59.59;100041.22;5103722;28;20502;-68
2022/08/26 03:14:22;;;;;;;7.97;5.97;;;;;;;21.33;59.17;100029.75;5103609;28;20047;-67
2022/08/26 03:16:52;;;;;;;7.93;5.95;;;;;;;21.30;59.70;100029.19;5099511;27;20051;-67
2022/08/26 03:19:23;;;;;;;7.10;5.75;;;;;;;21.39;59.52;100047.16;5103456;28;20055;-68
2022/08/26 03:21:51;;;;;;;8.57;6.13;;;;;;;21.31;59.42;100041.66;5106429;27;20122;-68
2022/08/26 03:24:24;;;;;;;8.90;5.95;;;;;;;21.32;59.87;100046.06;5081426;28;20567;-68
2022/08/26 03:26:51;;;;;;;6.90;6.03;;;;;;;21.19;59.87;100022.16;5105412;27;20361;-68
2022/08/26 03:32:05;;;;;;;6.68;5.78;;;;;;;21.24;60.15;100032.50;5106637;28;20140;-67
2022/08/26 03:34:31;;;;;;;8.35;5.90;;;;;;;21.35;60.19;100041.22;5105078;27;20051;-67
2022/08/26 03:36:58;;;;;;;8.13;6.45;;;;;;;21.32;60.29;100041.53;5108700;27;20070;-68
2022/08/26 03:39:27;;;;;;;11.50;6.18;;;;;;;21.33;60.54;100043.22;5099738;27;20044;-68
2022/08/26 03:41:57;;;;;;;8.32;5.55;;;;;;;21.35;60.44;100041.22;5103317;28;20333;-67
2022/08/26 03:44:24;;;;;;;7.72;6.05;;;;;;;21.30;60.42;100040.81;5089700;28;20039;-68
2022/08/26 03:46:52;;;;;;;9.38;6.32;;;;;;;21.37;60.54;100051.00;5103323;27;20055;-67
2022/08/26 03:49:19;;;;;;;6.97;6.28;;;;;;;21.34;60.27;100034.16;5098436;27;20047;-67
2022/08/26 03:51:46;;;;;;;9.70;5.97;;;;;;;21.49;59.99;100047.97;5094745;27;20148;-68
2022/08/26 03:54:13;;;;;;;8.18;6.68;;;;;;;21.50;60.09;100048.81;5097713;28;20071;-67
2022/08/26 03:56:41;;;;;;;7.75;5.93;;;;;;;21.48;59.81;100051.66;5103413;28;20059;-67
2022/08/26 03:59:12;;;;;;;7.45;5.93;;;;;;;21.47;60.07;100046.41;5103027;28;20051;-67
2022/08/26 04:01:38;;;;;;;7.15;6.03;;;;;;;21.47;59.92;100043.72;5103831;27;20088;-68
2022/08/26 04:04:05;;;;;;;7.53;5.80;;;;;;;21.45;60.09;100033.09;5099459;28;20039;-67
2022/08/26 04:06:41;;;;;;;9.93;6.88;;;;;;;21.48;60.02;100042.72;5087259;28;20468;-68
2022/08/26 04:09:14;;;;;;;7.78;6.00;;;;;;;21.45;60.29;100043.00;5096127;28;20047;-67
2022/08/26 04:11:43;;;;;;;8.82;6.13;;;;;;;21.43;60.06;100045.84;5097144;28;20132;-69
2022/08/26 04:14:13;;;;;;;8.55;5.85;;;;;;;21.44;60.31;100044.00;5096974;28;20052;-68
2022/08/26 04:16:44;;;;;;;10.68;6.03;;;;;;;21.44;60.57;100044.00;5105308;28;20407;-68
2022/08/26 04:19:13;;;;;;;9.52;6.57;;;;;;;21.44;60.54;100044.84;5094598;27;20109;-69
2022/08/26 04:21:40;;;;;;;7.25;5.93;;;;;;;21.45;60.43;100043.00;5104009;28;20277;-67
2022/08/26 04:24:10;;;;;;;7.00;6.30;;;;;;;21.41;60.51;100036.25;5101911;27;20052;-67
2022/08/26 04:26:38;;;;;;;;;;;;;;;21.44;60.69;100038.63;5101490;28;20052;-67
2022/08/26 04:29:15;;;;;;;9.18;6.18;;;;;;;21.43;60.79;100034.22;5104458;28;20058;-67
2022/08/26 04:31:41;;;;;;;7.85;6.00;;;;;;;21.48;60.84;100040.03;5096466;28;20555;-68
2022/08/26 04:34:09;;;;;;;8.45;6.35;;;;;;;21.54;60.23;100039.44;5099542;28;20418;-67
2022/08/26 04:36:36;;;;;;;9.68;5.82;;;;;;;21.53;60.05;100038.59;5100613;28;20106;-67
2022/08/26 04:39:04;;;;;;;9.23;6.20;;;;;;;21.54;60.20;100034.03;5084856;28;20050;-68
2022/08/26 04:41:31;;;;;;;9.60;6.03;;;;;;;21.61;59.94;100037.81;5099881;28;20050;-68
2022/08/26 04:43:57;;;;;;;8.38;6.00;;;;;;;21.62;60.15;100029.59;5103572;28;20079;-67
2022/08/26 04:46:24;;;;;;;7.57;6.05;;;;;;;21.66;59.94;100035.53;5100257;28;20134;-68
2022/08/26 04:48:52;;;;;;;8.93;6.38;;;;;;;21.59;60.31;100020.94;5103305;28;20550;-68
2022/08/26 04:51:26;;;;;;;7.40;6.15;;;;;;;21.68;60.14;100036.22;5100149;28;20056;-67
2022/08/26 04:53:57;;;;;;;9.02;6.53;;;;;;;21.70;60.36;100036.94;5105366;28;20047;-70
2022/08/26 04:56:27;;;;;;;7.68;6.15;;;;;;;21.73;60.31;100035.75;5100843;28;20043;-67
2022/08/26 04:58:54;;;;;;;9.50;6.40;;;;;;;21.63;60.27;100023.19;5103232;28;20059;-67
2022/08/26 05:01:21;;;;;;;7.65;6.65;;;;;;;21.62;60.35;100018.81;5100893;28;20043;-68
2022/08/26 05:03:50;;;;;;;9.85;6.70;;;;;;;21.72;60.49;100050.25;5100605;28;20484;-68
2022/08/26 05:06:18;;;;;;;7.18;6.35;;;;;;;21.58;60.69;100019.25;5104023;28;20065;-67
2022/08/26 05:08:45;;;;;;;6.80;6.10;;;;;;;21.62;60.91;100037.66;5102810;28;20097;-68
2022/08/26 05:11:12;;;;;;;8.25;6.38;;;;;;;21.67;60.78;100042.63;5099328;28;20055;-69
2022/08/26 05:13:39;;;;;;;9.75;6.43;;;;;;;21.60;61.05;100039.66;5104414;28;20056;-68
2022/08/26 05:16:10;;;;;;;9.82;6.75;;;;;;;21.61;61.32;100056.69;5105656;28;20047;-69
2022/08/26 05:18:38;;;;;;;8.02;6.10;;;;;;;21.49;61.40;100026.41;5101082;28;20051;-67
2022/08/26 05:21:05;;;;;;;8.60;6.57;;;;;;;21.63;61.27;100049.28;5099067;28;20048;-67
2022/08/26 05:23:34;;;;;;;9.38;6.97;;;;;;;21.60;61.35;100063.06;5109236;27;20495;-67
2022/08/26 05:26:06;;;;;;;13.40;7.13;;;;;;;21.49;61.95;100068.66;5102855;28;20044;-69
2022/08/26 05:28:33;;;;;;;8.05;6.57;;;;;;;21.43;62.47;100062.00;5108785;27;20051;-67
2022/08/26 05:31:09;;;;;;;10.10;6.45;;;;;;;21.40;62.53;100074.97;5096947;28;20048;-67
2022/08/26 05:33:36;;;;;;;10.93;7.38;;;;;;;21.32;62.61;100075.69;5106880;27;20047;-67
2022/08/26 05:36:09;;;;;;;11.80;6.72;;;;;;;21.25;62.80;100074.59;5104179;28;20040;-68
2022/08/26 05:38:37;;;;;;;8.57;6.85;;;;;;;21.17;62.82;100067.22;5106204;27;20514;-67
2022/08/26 05:41:13;;;;;;;12.52;8.07;;;;;;;21.04;63.34;100053.25;5099219;28;20082;-67
2022/08/26 05:43:42;;;;;;;9.98;7.32;;;;;;;21.19;63.56;100075.16;5105113;28;20412;-69
2022/08/26 05:46:09;;;;;;;9.88;6.82;;;;;;;21.27;63.45;100073.44;5107940;27;20137;-68
2022/08/26 05:48:36;;;;;;;11.23;7.25;;;;;;;21.32;62.81;100071.16;5105814;28;20055;-68
2022/08/26 05:51:05;;;;;;;8.27;6.57;;;;;;;21.35;62.88;100070.00;5099273;28;20479;-68
2022/08/26 05:53:32;;;;;;;13.75;7.38;;;;;;;21.38;63.10;100074.25;5109326;28;20078;-68
2022/08/26 05:55:59;;;;;;;8.60;7.18;;;;;;;21.38;63.24;100076.94;5100318;27;20066;-69
2022/08/26 05:58:26;;;;;;;9.05;7.10;;;;;;;21.37;63.06;100080.63;5108178;28;20048;-68
2022/08/26 06:00:59;;;;;;;10.35;6.85;;;;;;;21.40;62.32;100081.19;5102728;27;20117;-68
2022/08/26 06:03:26;;;;;;;7.90;7.10;;;;;;;21.39;62.86;100079.50;5106633;27;20041;-67
2022/08/26 06:05:54;;;;;;;10.77;7.55;;;;;;;21.44;63.30;100073.63;5099127;28;20055;-69
2022/08/26 06:08:20;;;;;;;11.45;7.70;;;;;;;21.50;62.92;100078.44;5102185;28;20098;-67
2022/08/26 06:10:51;;;;;;;12.95;7.80;;;;;;;21.57;62.15;100082.22;5103675;28;20047;-70
2022/08/26 06:13:21;;;;;;;11.38;7.30;;;;;;;21.60;61.79;100079.22;5106562;28;20093;-68
2022/08/26 06:15:50;;;;;;;12.55;7.32;;;;;;;21.65;61.86;100087.72;5107746;28;20048;-68
2022/08/26 06:18:21;;;;;;;12.95;7.70;;;;;;;21.54;61.66;100061.84;5102962;27;20050;-68
2022/08/26 06:20:49;;;;;;;9.25;6.88;;;;;;;21.65;61.99;100076.94;5109332;27;20081;-68
2022/08/26 06:26:11;;;;;;;12.00;6.93;;;;;;;21.69;62.14;100068.41;5105868;27;20075;-68
2022/08/26 06:28:38;;;;;;;9.43;7.25;;;;;;;21.86;62.01;100084.78;5106701;27;20074;-68
2022/08/26 06:31:04;;;;;;;12.57;7.25;;;;;;;21.84;62.08;100092.16;5104168;27;20109;-68
2022/08/26 06:33:34;;;;;;;13.63;8.00;;;;;;;21.80;62.18;100088.91;5104611;27;20047;-67
2022/08/26 06:36:00;;;;;;;9.43;7.53;;;;;;;21.76;62.07;100090.19;5106628;27;20411;-68
2022/08/26 06:38:27;;;;;;;9.43;7.13;;;;;;;21.75;62.62;100096.59;5104685;27;20507;-68
2022/08/26 06:40:55;;;;;;;9.95;7.22;;;;;;;21.85;61.99;100101.94;5107163;28;20054;-68
2022/08/26 06:43:26;;;;;;;12.55;7.20;;;;;;;21.71;61.96;100087.13;5106261;27;20130;-69
2022/08/26 06:46:06;;;;;;;13.35;7.53;;;;;;;21.80;62.13;100104.22;5106296;27;20043;-68
2022/08/26 06:48:34;;;;;;;12.10;7.43;;;;;;;21.73;62.24;100081.56;5105226;27;20491;-68
2022/08/26 06:51:22;;;;;;;11.85;7.45;;;;;;;21.95;62.31;100110.81;5096883;27;20385;-68
2022/08/26 06:53:52;;;;;;;13.27;7.38;;;;;;;22.05;61.43;100101.69;5105393;28;20404;-68
2022/08/26 06:56:22;;;;;;;12.00;7.70;;;;;;;22.26;60.88;100109.47;5099603;28;20039;-69
2022/08/26 06:58:50;;;;;;;10.30;7.38;;;;;;;22.55;60.18;100103.84;5105649;28;20108;-67
2022/08/26 07:01:23;;;;;;;9.48;6.90;;;;;;;22.76;59.57;100092.72;5104594;27;20036;-67
2022/08/26 07:03:52;;;;;;;11.45;7.28;;;;;;;23.00;58.79;100097.44;5102680;28;20044;-69
2022/08/26 07:06:24;;;;;;;11.15;7.38;;;;;;;23.27;58.92;100105.41;5099948;27;20083;-68
2022/08/26 07:08:53;;;;;;;10.38;7.45;;;;;;;23.56;56.84;100101.53;5101099;27;20527;-68
2022/08/26 07:11:19;;;;;;;11.88;7.20;;;;;;;23.61;56.39;100074.88;5101876;27;20075;-68
2022/08/26 07:13:47;;;;;;;14.77;8.10;;;;;;;23.86;55.55;100100.97;5100318;27;20077;-67
2022/08/26 07:16:16;;;;;;;13.48;7.65;;;;;;;23.87;55.39;100101.81;5096621;27;20048;-68
2022/08/26 07:18:43;;;;;;;13.10;7.03;;;;;;;23.93;55.42;100099.28;5091247;27;20052;-68
2022/08/26 07:21:13;;;;;;;11.13;7.38;;;;;;;23.98;55.75;100105.03;5092436;27;20490;-68
2022/08/26 07:23:40;;;;;;;11.05;7.22;;;;;;;24.03;55.39;100097.28;5095083;27;20116;-68
2022/08/26 07:26:10;;;;;;;12.68;7.32;;;;;;;24.09;55.39;100101.16;5097861;27;20039;-68
2022/08/26 07:28:38;;;;;;;11.20;7.25;;;;;;;24.22;55.02;100100.72;5095048;28;20047;-68
2022/08/26 07:31:07;;;;;;;10.48;7.22;;;;;;;24.36;54.99;100098.22;5098479;27;20609;-70
2022/08/26 07:33:35;;;;;;;;;;;;;;;24.51;55.10;100097.56;5096856;27;20054;-68
2022/08/26 07:36:02;;;;;;;11.40;7.55;;;;;;;24.70;54.50;100084.53;5101978;28;19934;-69
2022/08/26 07:38:29;;;;;;;12.07;7.85;;;;;;;24.99;53.46;100096.72;5098390;28;20047;-68
2022/08/26 07:41:00;;;;;;;13.70;7.30;;;;;;;25.18;53.02;100078.19;5100258;28;20573;-69
2022/08/26 07:43:28;;;;;;;14.35;7.40;;;;;;;25.57;52.16;100087.38;5096784;28;20067;-67
2022/08/26 07:45:55;;;;;;;12.55;7.55;;;;;;;25.93;51.68;100091.31;5096213;28;20105;-68
2022/08/26 07:48:22;;;;;;;11.43;6.72;;;;;;;26.46;50.14;100090.47;5099381;28;20132;-68
2022/08/26 07:50:48;;;;;;;11.02;7.70;;;;;;;27.02;48.53;100084.75;5094719;27;20090;-67
2022/08/26 07:53:20;;;;;;;10.73;7.13;;;;;;;27.38;47.19;100069.38;5100335;27;20483;-67
2022/08/26 07:55:49;;;;;;;11.70;7.10;;;;;;;27.89;46.75;100083.84;5099201;27;20054;-67
2022/08/26 07:58:17;;;;;;;10.45;7.93;;;;;;;28.26;44.06;100082.84;5101879;28;20044;-68
2022/08/26 08:00:44;;;;;;;12.50;7.20;;;;;;;28.49;43.42;100073.66;5095852;28;20067;-67
2022/08/26 08:03:12;;;;;;;9.32;6.68;;;;;;;28.89;43.19;100097.50;5101146;28;20747;-68
2022/08/26 08:05:39;;;;;;;12.32;6.43;;;;;;;29.17;42.87;100091.19;5093029;28;20036;-68
2022/08/26 08:08:08;;;;;;;11.02;8.05;;;;;;;29.27;42.45;100094.41;5101795;28;20110;-68
2022/08/26 08:10:55;;;;;;;12.15;7.35;;;;;;;29.28;42.99;100090.63;5099110;28;20054;-68
2022/08/26 08:13:22;;;;;;;14.88;6.90;;;;;;;29.39;41.83;100087.38;5082994;28;20089;-68
2022/08/26 08:15:49;;;;;;;10.52;7.55;;;;;;;29.51;42.09;100090.38;5092865;28;20040;-69
2022/08/26 08:18:16;;;;;;;12.15;7.22;;;;;;;29.61;41.67;100086.22;5098433;28;20179;-68
2022/08/26 08:20:47;;;;;;;12.95;7.35;;;;;;;29.88;40.98;100087.19;5096339;28;20043;-67
2022/08/26 08:23:31;;;;;;;16.13;7.38;;;;;;;29.98;40.59;100065.81;5099076;27;20050;-68
2022/08/26 08:26:05;;;;;;;13.57;7.07;;;;;;;30.12;41.31;100093.16;5097252;28;20059;-68
2022/08/26 08:28:34;;;;;;;8.93;6.50;;;;;;;30.13;41.29;100084.75;5096142;28;20050;-69
2022/08/26 08:31:00;;;;;;;11.38;6.90;;;;;;;30.24;40.38;100089.63;5105348;28;20138;-68
2022/08/26 08:33:32;;;;;;;7.65;6.85;;;;;;;30.20;40.65;100084.78;5107451;27;20050;-68
2022/08/26 08:35:59;;;;;;;8.20;6.90;;;;;;;30.19;40.84;100085.84;5094470;28;20047;-68
2022/08/26 08:38:27;;;;;;;7.85;6.32;;;;;;;30.29;39.57;100083.53;5094172;28;20247;-67
2022/08/26 08:40:54;;;;;;;11.73;7.43;;;;;;;30.26;38.98;100073.03;5096647;28;20067;-68
2022/08/26 08:43:31;;;;;;;9.52;6.45;;;;;;;30.04;39.43;100080.56;5097634;28;20067;-68
2022/08/26 08:46:08;;;;;;;8.73;6.95;;;;;;;29.67;40.15;100074.50;5100065;28;20067;-67
2022/08/26 08:48:41;;;;;;;8.18;6.85;;;;;;;29.79;40.91;100076.63;5098413;28;20047;-67
2022/08/26 08:51:26;;;;;;;10.25;6.95;;;;;;;30.29;40.35;100078.91;5096383;28;20482;-67
2022/08/26 08:53:54;;;;;;;12.80;7.00;;;;;;;30.36;39.18;100078.94;5089904;28;20111;-68
2022/08/26 08:56:41;;;;;;;8.98;6.75;;;;;;;30.32;39.40;100067.59;5093708;28;20047;-68
2022/08/26 08:59:19;;;;;;;8.60;7.03;;;;;;;30.21;39.36;100081.03;5105573;28;20066;-67
2022/08/26 09:02:12;;;;;;;9.75;6.80;;;;;;;30.02;39.87;100079.06;5103080;27;20059;-69
2022/08/26 09:05:07;;;;;;;9.30;6.45;;;;;;;29.86;40.48;100077.53;5104853;28;20134;-69
2022/08/26 09:07:39;;;;;;;13.73;7.53;;;;;;;29.69;41.30;100074.31;5100176;27;20054;-70
2022/08/26 09:10:28;;;;;;;8.35;6.72;;;;;;;29.64;41.04;100076.78;5101151;27;20483;-68
2022/08/26 09:12:55;;;;;;;7.40;6.70;;;;;;;29.54;40.57;100087.25;5097455;27;20495;-68
2022/08/26 09:15:26;;;;;;;9.45;7.22;;;;;;;29.45;41.09;100075.66;5099869;27;20543;-72
2022/08/26 09:18:01;;;;;;;14.13;6.53;;;;;;;29.42;41.22;100067.88;5107243;27;20059;-68
2022/08/26 09:20:52;;;;;;;10.13;7.15;;;;;;;29.59;41.05;100080.13;5081063;27;20062;-70
2022/08/26 09:23:19;;;;;;;9.35;6.28;;;;;;;29.70;41.66;100077.88;5093418;27;20109;-68
2022/08/26 09:25:53;;;;;;;10.48;6.88;;;;;;;29.75;40.58;100080.84;5099970;28;20051;-70
2022/08/26 09:28:22;;;;;;;11.07;7.10;;;;;;;29.64;40.79;100072.19;5099846;28;20051;-70
2022/08/26 09:31:20;;;;;;;7.32;6.53;;;;;;;29.76;40.53;100077.03;5100721;27;20173;-69
2022/08/26 09:34:05;;;;;;;11.60;6.97;;;;;;;29.83;40.75;100073.31;5108159;27;20143;-68
2022/08/26 09:36:57;;;;;;;8.90;7.07;;;;;;;29.96;40.54;100080.69;5102650;27;20051;-68
2022/08/26 09:39:27;;;;;;;10.73;6.93;;;;;;;30.18;40.58;100073.22;5110696;27;20589;-68
2022/08/26 09:42:10;;;;;;;13.48;7.15;;;;;;;30.42;40.26;100074.53;5106391;27;20093;-70
2022/08/26 09:44:59;;;;;;;8.18;6.80;;;;;;;30.61;39.15;100066.38;5088630;27;20047;-71
2022/08/26 09:47:37;;;;;;;9.57;7.57;;;;;;;30.45;39.66;100061.28;5109490;27;20067;-71
2022/08/26 09:50:28;;;;;;;9.20;7.45;;;;;;;30.55;40.10;100061.72;5100078;27;20083;-67
2022/08/26 09:53:13;;;;;;;10.90;7.32;;;;;;;30.65;39.96;100029.38;5103483;27;20055;-68
2022/08/26 09:55:46;;;;;;;11.05;6.95;;;;;;;30.72;39.26;100056.69;5108922;27;20136;-70
2022/08/26 09:58:30;;;;;;;7.95;7.07;;;;;;;30.76;39.11;100041.56;5101108;27;20070;-69
2022/08/26 10:01:00;;;;;;;9.00;7.25;;;;;;;31.07;38.61;100046.34;5091409;27;20047;-70
2022/08/26 10:03:31;;;;;;;;;;;;;;;31.28;38.75;100048.03;5113277;27;20052;-70
2022/08/26 10:06:01;;;;;;;9.05;6.75;;;;;;;31.41;39.14;100022.50;5106510;27;19920;-67
2022/08/26 10:08:36;;;;;;;11.95;6.90;;;;;;;31.60;37.35;100014.22;5106824;27;20083;-70
2022/08/26 10:11:10;;;;;;;10.05;7.18;;;;;;;31.67;37.10;100009.56;5103029;27;20050;-69
2022/08/26 10:13:43;;;;;;;9.57;6.43;;;;;;;31.57;37.01;100028.34;5106239;28;20134;-69
2022/08/26 10:16:28;;;;;;;11.10;6.95;;;;;;;31.39;37.70;100022.72;5091984;28;20039;-69
2022/08/26 10:19:05;;;;;;;7.50;6.70;;;;;;;31.19;37.07;100020.03;5098883;28;20044;-69
2022/08/26 10:21:40;;;;;;;9.02;6.93;;;;;;;30.77;37.90;100015.06;5091982;27;20050;-69
2022/08/26 10:24:13;;;;;;;8.60;6.78;;;;;;;30.49;39.27;100013.38;5103198;28;20047;-69
2022/08/26 10:27:05;;;;;;;11.23;6.88;;;;;;;30.31;39.50;100019.47;5100017;28;20051;-69
2022/08/26 10:29:45;;;;;;;9.23;6.65;;;;;;;30.21;39.80;100012.75;5100239;28;20043;-70
2022/08/26 10:32:15;;;;;;;;;;;;;;;30.20;39.95;100017.34;5107040;27;20105;-69
2022/08/26 10:34:43;;;;;;;8.60;6.85;;;;;;;30.16;39.53;100018.81;5093024;27;20666;-70
2022/08/26 10:37:16;;;;;;;10.05;6.93;;;;;;;30.09;40.08;100007.03;5094076;27;20212;-70
2022/08/26 10:39:50;;;;;;;10.73;7.40;;;;;;;29.78;40.36;100004.00;5100132;27;20056;-70
2022/08/26 10:42:39;;;;;;;8.35;6.55;;;;;;;29.56;41.31;100004.16;5095493;28;20054;-69
2022/08/26 10:45:14;;;;;;;10.15;7.05;;;;;;;29.62;41.21;100005.19;5088693;27;20051;-70
2022/08/26 10:47:47;;;;;;;8.35;7.25;;;;;;;29.69;41.54;99997.03;5089427;28;20737;-69
2022/08/26 10:50:15;;;;;;;8.55;7.40;;;;;;;29.75;41.16;100001.69;5096213;27;20054;-69
2022/08/26 10:52:50;;;;;;;11.90;7.13;;;;;;;29.64;41.04;99993.03;5102216;28;20078;-68
2022/08/26 10:55:34;;;;;;;8.70;6.65;;;;;;;29.54;41.55;100000.78;5099285;28;20132;-68
2022/08/26 10:58:21;;;;;;;8.05;7.25;;;;;;;29.58;41.59;100004.78;5100536;27;20063;-68
2022/08/26 11:04:01;;;;;;;10.38;7.55;;;;;;;29.56;41.58;99998.69;5105372;28;20082;-66
2022/08/26 11:06:30;;;;;;;9.00;6.93;;;;;;;29.54;41.69;99991.75;5079399;28;20087;-68
2022/08/26 11:09:03;;;;;;;9.93;7.88;;;;;;;29.61;42.25;99996.16;5098926;28;20066;-69
2022/08/26 11:11:38;;;;;;;12.98;10.65;;;;;;;29.46;42.92;99989.19;5101331;27;20810;-68
2022/08/26 11:14:21;;;;;;;14.27;10.68;;;;;;;29.29;44.03;99991.38;5093975;28;20048;-68
2022/08/26 11:16:57;;;;;;;13.07;11.05;;;;;;;29.14;43.81;99986.06;5104661;27;20108;-69
2022/08/26 11:19:40;;;;;;;21.27;12.30;;;;;;;28.86;44.62;99990.75;5099818;28;20118;-69
2022/08/26 11:22:34;;;;;;;15.25;11.60;;;;;;;28.78;45.03;99991.72;5100547;27;20052;-68
2022/08/26 11:25:10;;;;;;;14.40;12.07;;;;;;;28.65;45.16;99991.59;5099505;28;20048;-68
2022/08/26 11:27:37;;;;;;;17.02;13.07;;;;;;;28.57;45.84;99992.63;5076919;28;20121;-69
2022/08/26 11:30:04;;;;;;;16.38;13.07;;;;;;;28.51;45.31;99974.34;5094060;28;20115;-67
2022/08/26 11:32:40;;;;;;;16.42;12.43;;;;;;;28.43;45.78;99970.94;5098188;27;20043;-69
2022/08/26 11:35:16;;;;;;;17.92;12.50;;;;;;;28.27;45.55;99972.06;5098146;27;20059;-68
2022/08/26 11:37:56;;;;;;;19.70;12.73;;;;;;;28.26;45.62;99983.97;5101926;27;20467;-70
2022/08/26 11:40:34;;;;;;;15.05;12.45;;;;;;;28.19;46.24;99981.19;5105357;28;20050;-68
2022/08/26 11:43:01;;;;;;;15.65;12.40;;;;;;;28.10;46.39;99974.16;5104414;28;20051;-70
2022/08/26 11:45:38;;;;;;;20.15;13.18;;;;;;;27.96;46.93;99968.81;5104134;27;20078;-68
2022/08/26 11:48:15;;;;;;;17.15;13.13;;;;;;;27.75;46.66;99940.53;5102975;28;20435;-68
2022/08/26 11:51:04;;;;;;;24.75;12.93;;;;;;;27.83;47.38;99942.31;5108838;27;20054;-67
2022/08/26 11:53:37;;;;;;;16.55;13.18;;;;;;;27.97;46.97;99957.72;5103769;27;20043;-69